createdAt,value
2022-09-05T00:00:03.288Z,76.90
2022-09-05T00:02:50.930Z,77.14
2022-09-05T00:05:29.592Z,77.43
2022-09-05T00:08:04.174Z,77.37
2022-09-05T00:11:39.936Z,76.99
2022-09-05T00:13:32.044Z,76.67
2022-09-05T00:16:15.409Z,77.10
2022-09-05T00:24:21.085Z,77.53
2022-09-05T00:24:22.209Z,77.63
2022-09-05T00:27:57.287Z,77.74
2022-09-05T00:31:51.851Z,77.63
2022-09-05T00:33:27.070Z,78.19
2022-09-05T00:36:12.639Z,78.52
2022-09-05T00:38:52.586Z,78.57
2022-09-05T00:41:20.741Z,78.68
2022-09-05T00:43:51.281Z,78.60
2022-09-05T00:46:24.350Z,78.96
2022-09-05T00:49:00.125Z,79.35
2022-09-05T00:51:36.744Z,79.51
2022-09-05T00:54:28.349Z,79.26
2022-09-05T00:57:33.205Z,79.48
2022-09-05T01:00:17.057Z,79.48
2022-09-05T01:03:10.180Z,79.45
2022-09-05T01:06:03.133Z,79.65
2022-09-05T01:09:07.596Z,79.50
2022-09-05T01:11:46.582Z,79.99
2022-09-05T01:14:37.021Z,79.89
2022-09-05T01:17:28.548Z,79.32
2022-09-05T01:20:19.407Z,79.31
2022-09-05T01:23:25.538Z,79.95
2022-09-05T01:26:09.798Z,79.80
2022-09-05T01:31:50.319Z,79.84
2022-09-05T01:34:32.023Z,80.14
2022-09-05T01:37:08.726Z,79.74
2022-09-05T01:40:11.324Z,79.81
2022-09-05T01:42:52.869Z,79.95
2022-09-05T01:45:29.042Z,80.55
2022-09-05T01:48:14.680Z,80.18
2022-09-05T01:50:49.297Z,80.47
2022-09-05T01:53:40.174Z,80.58
2022-09-05T01:56:34.170Z,80.71
2022-09-05T01:59:21.985Z,80.28
2022-09-05T02:02:06.338Z,80.61
2022-09-05T02:04:50.434Z,80.32
2022-09-05T02:07:33.319Z,80.39
2022-09-05T02:10:21.734Z,80.47
2022-09-05T02:13:02.187Z,80.42
2022-09-05T02:15:43.046Z,80.65
2022-09-05T02:18:44.202Z,80.63
2022-09-05T02:21:22.192Z,80.91
2022-09-05T02:24:03.070Z,80.78
2022-09-05T02:26:35.900Z,80.62
2022-09-05T02:29:28.396Z,80.91
2022-09-05T02:32:03.087Z,81.10
2022-09-05T02:34:41.787Z,80.76
2022-09-05T02:37:28.977Z,81.03
2022-09-05T02:45:09.903Z,80.88
2022-09-05T02:45:14.815Z,80.92
2022-09-05T02:46:09.522Z,80.76
2022-09-05T02:48:55.349Z,80.60
2022-09-05T02:57:28.390Z,80.32
2022-09-05T02:57:38.792Z,80.28
2022-09-05T02:58:06.037Z,80.88
2022-09-05T03:00:24.299Z,81.22
2022-09-05T03:03:21.307Z,80.46
2022-09-05T03:05:57.950Z,81.00
2022-09-05T03:08:44.403Z,80.98
2022-09-05T03:11:58.113Z,80.26
2022-09-05T03:15:22.239Z,80.07
2022-09-05T03:18:21.113Z,80.36
2022-09-05T03:21:29.320Z,80.25
2022-09-05T03:24:29.376Z,80.29
2022-09-05T03:27:29.096Z,80.35
2022-09-05T03:30:09.747Z,80.58
2022-09-05T03:33:13.967Z,80.92
2022-09-05T03:36:28.601Z,80.79
2022-09-05T03:39:35.682Z,80.90
2022-09-05T03:42:31.234Z,80.96
2022-09-05T03:45:36.295Z,80.94
2022-09-05T03:48:29.310Z,80.93
2022-09-05T03:57:07.965Z,81.25
2022-09-05T03:57:22.886Z,80.77
2022-09-05T03:57:48.514Z,80.22
2022-09-05T04:00:22.202Z,80.63
2022-09-05T04:07:41.458Z,81.47
2022-09-05T04:08:16.627Z,81.24
2022-09-05T04:08:57.098Z,81.24
2022-09-05T04:11:37.128Z,81.66
2022-09-05T04:14:13.117Z,81.60
2022-09-05T04:16:51.212Z,82.04
2022-09-05T04:19:27.806Z,82.16
2022-09-05T04:22:07.161Z,82.07
2022-09-05T04:24:43.667Z,81.93
2022-09-05T04:27:30.331Z,81.82
2022-09-05T04:30:11.684Z,81.66
2022-09-05T04:33:00.579Z,81.84
2022-09-05T04:35:37.677Z,81.96
2022-09-05T04:38:14.731Z,81.59
2022-09-05T04:40:47.627Z,81.87
2022-09-05T04:43:26.409Z,82.13
2022-09-05T04:46:00.228Z,82.01
2022-09-05T04:48:35.987Z,82.10
2022-09-05T04:51:12.930Z,82.11
2022-09-05T04:54:02.111Z,82.48
2022-09-05T04:56:36.184Z,82.92
2022-09-05T05:02:29.888Z,82.82
2022-09-05T05:06:03.644Z,82.50
2022-09-05T05:06:13.326Z,82.88
2022-09-05T05:07:59.179Z,82.40
2022-09-05T05:13:49.116Z,81.77
2022-09-05T05:16:20.644Z,82.35
2022-09-05T05:18:10.381Z,82.27
2022-09-05T05:19:21.999Z,82.25
2022-09-05T05:21:53.824Z,82.24
2022-09-05T05:24:25.330Z,82.36
2022-09-05T05:27:01.315Z,82.79
2022-09-05T05:29:39.795Z,82.40
2022-09-05T05:32:08.623Z,83.17
2022-09-05T05:34:46.204Z,82.60
2022-09-05T05:37:22.082Z,82.38
2022-09-05T05:39:59.002Z,81.71
2022-09-05T05:42:27.076Z,81.74
2022-09-05T05:44:58.750Z,82.35
2022-09-05T05:47:32.190Z,82.04
2022-09-05T05:50:11.287Z,82.10
2022-09-05T05:52:57.216Z,81.93
2022-09-05T05:55:57.631Z,82.04
2022-09-05T05:58:53.374Z,82.13
2022-09-05T06:02:07.103Z,82.03
2022-09-05T06:05:14.246Z,81.88
2022-09-05T06:09:17.017Z,82.20
2022-09-05T06:14:50.672Z,81.69
2022-09-05T06:15:04.849Z,81.56
2022-09-05T06:17:23.934Z,81.36
2022-09-05T06:22:04.631Z,81.31
2022-09-05T06:23:47.012Z,80.92
2022-09-05T06:26:54.877Z,80.92
2022-09-05T06:29:38.280Z,80.76
2022-09-05T06:32:28.255Z,80.31
2022-09-05T06:35:23.231Z,79.96
2022-09-05T06:38:05.525Z,79.56
2022-09-05T06:40:42.198Z,79.86
2022-09-05T06:43:25.128Z,79.76
2022-09-05T06:46:12.976Z,79.31
2022-09-05T06:49:30.178Z,78.63
2022-09-05T06:52:01.077Z,78.44
2022-09-05T06:55:33.867Z,78.17
2022-09-05T06:58:37.480Z,77.80
2022-09-05T07:01:08.880Z,77.07
2022-09-05T07:04:33.360Z,76.70
2022-09-05T07:07:06.516Z,77.03
2022-09-05T07:09:49.016Z,76.15
2022-09-05T07:12:22.986Z,75.49
2022-09-05T07:14:59.425Z,76.08
2022-09-05T07:18:09.940Z,75.73
2022-09-05T07:21:15.969Z,75.79
2022-09-05T07:24:08.866Z,75.11
2022-09-05T07:26:53.762Z,74.75
2022-09-05T07:29:29.664Z,74.41
2022-09-05T07:32:02.064Z,74.92
2022-09-05T07:34:31.669Z,74.66
2022-09-05T07:37:15.951Z,74.56
2022-09-05T07:39:52.765Z,72.99
2022-09-05T07:42:26.609Z,71.89
2022-09-05T07:44:59.027Z,72.21
2022-09-05T07:47:31.370Z,71.71
2022-09-05T07:50:40.167Z,71.89
2022-09-05T07:56:52.456Z,70.76
2022-09-05T07:56:56.794Z,70.40
2022-09-05T07:58:40.834Z,69.43
2022-09-05T08:01:12.629Z,69.23
2022-09-05T08:03:43.145Z,69.64
2022-09-05T08:07:48.308Z,69.38
2022-09-05T08:09:21.349Z,68.60
2022-09-05T08:12:09.668Z,68.79
2022-09-05T08:14:46.117Z,67.93
2022-09-05T08:17:18.863Z,67.90
2022-09-05T08:19:57.893Z,67.20
2022-09-05T08:22:52.352Z,67.04
2022-09-05T08:25:25.565Z,67.29
2022-09-05T08:28:06.773Z,67.10
2022-09-05T08:30:44.060Z,65.28
2022-09-05T08:33:15.857Z,65.04
2022-09-05T08:35:49.847Z,65.41
2022-09-05T08:38:21.994Z,64.10
2022-09-05T08:40:56.379Z,64.96
2022-09-05T08:46:39.282Z,63.85
2022-09-05T08:46:41.899Z,63.06
2022-09-05T08:49:37.787Z,63.46
2022-09-05T08:52:15.693Z,63.26
2022-09-05T08:55:04.359Z,62.75
2022-09-05T08:58:07.858Z,62.70
2022-09-05T09:00:55.017Z,62.62
2022-09-05T09:03:30.697Z,61.88
2022-09-05T09:06:35.650Z,61.49
2022-09-05T09:09:16.576Z,61.44
2022-09-05T09:11:54.045Z,61.14
2022-09-05T09:14:36.575Z,59.65
2022-09-05T09:17:20.039Z,60.55
2022-09-05T09:19:53.058Z,60.73
2022-09-05T09:22:39.274Z,59.71
2022-09-05T09:25:15.020Z,60.35
2022-09-05T09:28:49.672Z,58.82
2022-09-05T09:31:00.108Z,58.98
2022-09-05T09:33:39.494Z,58.92
2022-09-05T09:36:22.420Z,59.66
2022-09-05T09:39:37.541Z,58.74
2022-09-05T09:42:33.661Z,56.98
2022-09-05T09:45:31.997Z,56.77
2022-09-05T09:48:32.622Z,56.00
2022-09-05T09:51:13.139Z,53.59
2022-09-05T09:53:54.730Z,54.06
2022-09-05T09:56:42.460Z,52.78
2022-09-05T09:59:31.825Z,53.98
2022-09-05T10:04:39.596Z,52.54
2022-09-05T10:10:39.642Z,52.41
2022-09-05T10:11:25.760Z,50.92
2022-09-05T10:11:53.457Z,51.20
2022-09-05T10:14:58.395Z,50.51
2022-09-05T10:17:44.458Z,50.90
2022-09-05T10:20:29.693Z,51.72
2022-09-05T10:23:30.329Z,48.25
2022-09-05T10:26:36.581Z,49.54
2022-09-05T10:29:34.768Z,49.89
2022-09-05T10:35:06.907Z,50.43
2022-09-05T10:35:22.834Z,50.70
2022-09-05T10:37:51.728Z,50.10
2022-09-05T10:40:23.108Z,50.38
2022-09-05T10:43:00.190Z,49.26
2022-09-05T10:45:40.047Z,47.92
2022-09-05T10:48:18.042Z,48.95
2022-09-05T10:50:50.809Z,48.10
2022-09-05T10:53:25.470Z,48.28
2022-09-05T10:56:03.348Z,48.25
2022-09-05T11:02:17.247Z,48.28
2022-09-05T11:02:29.254Z,48.33
2022-09-05T11:04:46.695Z,47.33
2022-09-05T11:07:27.827Z,47.16
2022-09-05T11:10:08.273Z,46.92
2022-09-05T11:12:58.335Z,48.39
2022-09-05T11:15:35.146Z,47.56
2022-09-05T11:18:06.821Z,46.92
2022-09-05T11:21:01.917Z,44.67
2022-09-05T11:23:40.109Z,46.27
2022-09-05T11:26:32.072Z,46.08
2022-09-05T11:29:06.215Z,44.20
2022-09-05T11:32:08.498Z,43.44
2022-09-05T11:39:47.121Z,41.56
2022-09-05T11:40:07.272Z,43.43
2022-09-05T11:41:49.513Z,42.94
2022-09-05T11:44:28.089Z,42.98
2022-09-05T11:47:40.927Z,43.13
2022-09-05T11:50:44.891Z,43.89
2022-09-05T11:53:41.939Z,44.68
2022-09-05T11:56:41.940Z,44.31
2022-09-05T11:59:35.172Z,44.62
2022-09-05T12:02:27.342Z,45.44
2022-09-05T12:05:49.884Z,45.49
2022-09-05T12:08:21.308Z,44.78
2022-09-05T12:11:06.127Z,44.43
2022-09-05T12:13:42.482Z,45.64
2022-09-05T12:16:27.309Z,45.25
2022-09-05T12:19:18.865Z,47.34
2022-09-05T12:22:10.018Z,47.18
2022-09-05T12:26:30.817Z,46.32
2022-09-05T12:28:33.105Z,46.34
2022-09-05T12:30:55.110Z,45.36
2022-09-05T12:36:02.409Z,46.18
2022-09-05T12:40:04.674Z,45.11
2022-09-05T12:41:35.630Z,45.43
2022-09-05T12:42:38.619Z,45.99
2022-09-05T12:45:28.159Z,43.90
2022-09-05T12:48:13.490Z,43.17
2022-09-05T12:50:52.516Z,43.82
2022-09-05T12:53:21.929Z,43.95
2022-09-05T12:56:15.834Z,43.59
2022-09-05T13:03:00.827Z,42.91
2022-09-05T13:03:13.476Z,43.64
2022-09-05T13:04:32.670Z,43.45
2022-09-05T13:07:09.462Z,42.80
2022-09-05T13:11:17.305Z,42.65
2022-09-05T13:14:54.224Z,44.19
2022-09-05T13:15:26.968Z,43.27
2022-09-05T13:18:10.292Z,43.20
2022-09-05T13:20:46.744Z,42.63
2022-09-05T13:23:23.551Z,43.32
2022-09-05T13:25:58.569Z,42.66
2022-09-05T13:28:30.287Z,42.35
2022-09-05T13:33:31.316Z,43.00
2022-09-05T13:38:17.823Z,42.39
2022-09-05T13:38:20.930Z,43.08
2022-09-05T13:39:49.061Z,42.46
2022-09-05T13:42:20.943Z,41.81
2022-09-05T13:44:53.814Z,41.85
2022-09-05T13:47:41.029Z,41.59
2022-09-05T13:50:22.418Z,41.36
2022-09-05T13:52:56.715Z,42.61
2022-09-05T13:55:37.927Z,41.11
2022-09-05T13:58:10.261Z,41.78
2022-09-05T14:01:21.131Z,41.02
2022-09-05T14:07:55.648Z,42.06
2022-09-05T14:10:47.827Z,41.75
2022-09-05T14:13:20.090Z,41.90
2022-09-05T14:15:55.165Z,41.96
2022-09-05T14:18:25.402Z,41.39
2022-09-05T14:21:12.975Z,41.45
2022-09-05T14:23:56.023Z,41.15
2022-09-05T14:26:36.368Z,41.12
2022-09-05T14:29:16.786Z,40.51
2022-09-05T14:37:34.567Z,41.47
2022-09-05T14:37:51.717Z,41.31
2022-09-05T14:38:09.785Z,40.41
2022-09-05T14:41:20.467Z,41.21
2022-09-05T14:44:19.623Z,40.67
2022-09-05T14:47:35.234Z,40.19
2022-09-05T14:50:23.217Z,40.59
2022-09-05T14:55:58.715Z,40.93
2022-09-05T15:02:39.547Z,40.52
2022-09-05T15:02:54.232Z,40.48
2022-09-05T15:07:02.942Z,39.89
2022-09-05T15:12:15.943Z,39.18
2022-09-05T15:12:38.547Z,39.67
2022-09-05T15:15:18.154Z,39.30
2022-09-05T15:17:52.289Z,39.07
2022-09-05T15:20:33.321Z,39.35
2022-09-05T15:23:16.086Z,39.33
2022-09-05T15:25:48.234Z,39.78
2022-09-05T15:28:21.584Z,39.74
2022-09-05T15:30:58.823Z,40.31
2022-09-05T15:33:29.905Z,39.85
2022-09-05T15:35:58.837Z,40.74
2022-09-05T15:38:30.074Z,40.67
2022-09-05T15:41:21.532Z,40.25
2022-09-05T15:43:58.315Z,40.65
2022-09-05T15:46:42.306Z,40.13
2022-09-05T15:49:23.239Z,40.90
2022-09-05T15:51:53.520Z,40.45
2022-09-05T15:54:37.807Z,42.02
2022-09-05T15:57:17.663Z,41.71
2022-09-05T15:59:49.363Z,41.62
2022-09-05T16:02:22.696Z,42.06
2022-09-05T16:10:30.984Z,42.56
2022-09-05T16:10:41.774Z,42.15
2022-09-05T16:11:06.803Z,42.42
2022-09-05T16:13:52.507Z,42.10
2022-09-05T16:23:11.753Z,42.27
2022-09-05T16:23:29.333Z,42.31
2022-09-05T16:23:33.473Z,42.55
2022-09-05T16:25:05.692Z,42.59
2022-09-05T16:27:43.842Z,41.81
2022-09-05T16:30:15.811Z,42.48
2022-09-05T16:32:46.532Z,42.92
2022-09-05T16:35:25.150Z,41.85
2022-09-05T16:38:04.594Z,42.16
2022-09-05T16:40:36.516Z,42.66
2022-09-05T16:43:10.586Z,42.61
2022-09-05T16:45:47.845Z,43.01
2022-09-05T16:48:44.826Z,42.85
2022-09-05T16:51:35.472Z,43.09
2022-09-05T16:54:16.732Z,43.26
2022-09-05T16:56:49.144Z,42.77
2022-09-05T16:59:20.879Z,42.69
2022-09-05T17:02:06.368Z,44.10
2022-09-05T17:05:04.829Z,45.04
2022-09-05T17:08:01.586Z,44.87
2022-09-05T17:10:34.950Z,44.49
2022-09-05T17:13:04.917Z,44.51
2022-09-05T17:15:36.272Z,44.80
2022-09-05T17:18:19.027Z,44.46
2022-09-05T17:20:54.659Z,44.86
2022-09-05T17:28:05.180Z,45.30
2022-09-05T17:29:36.338Z,45.04
2022-09-05T17:32:42.599Z,46.25
2022-09-05T17:35:43.279Z,46.62
2022-09-05T17:38:42.631Z,47.35
2022-09-05T17:41:43.294Z,48.12
2022-09-05T17:44:21.262Z,48.94
2022-09-05T17:47:05.649Z,49.39
2022-09-05T17:49:43.216Z,49.83
2022-09-05T17:52:29.240Z,50.32
2022-09-05T17:54:57.589Z,50.86
2022-09-05T17:57:44.295Z,51.37
2022-09-05T18:00:59.985Z,51.36
2022-09-05T18:04:16.070Z,52.08
2022-09-05T18:10:15.412Z,52.89
2022-09-05T18:13:12.692Z,53.27
2022-09-05T18:16:12.119Z,53.69
2022-09-05T18:19:32.912Z,53.85
2022-09-05T18:21:48.519Z,54.39
2022-09-05T18:28:03.073Z,55.00
2022-09-05T18:33:54.636Z,55.30
2022-09-05T18:36:35.874Z,56.09
2022-09-05T18:39:37.482Z,56.96
2022-09-05T18:42:34.485Z,57.18
2022-09-05T18:45:14.731Z,57.46
2022-09-05T18:47:54.149Z,57.65
2022-09-05T18:50:32.297Z,58.34
2022-09-05T18:53:10.572Z,59.18
2022-09-05T18:56:13.820Z,59.12
2022-09-05T18:58:51.653Z,59.34
2022-09-05T19:01:43.666Z,59.52
2022-09-05T19:04:41.556Z,59.13
2022-09-05T19:07:14.848Z,60.10
2022-09-05T19:10:06.572Z,60.54
2022-09-05T19:12:54.031Z,60.46
2022-09-05T19:15:25.119Z,60.46
2022-09-05T19:18:03.709Z,60.58
2022-09-05T19:21:11.965Z,61.10
2022-09-05T19:23:48.497Z,61.36
2022-09-05T19:26:17.276Z,61.67
2022-09-05T19:36:49.414Z,62.86
2022-09-05T19:36:58.423Z,62.04
2022-09-05T19:37:09.250Z,62.60
2022-09-05T19:37:47.425Z,62.83
2022-09-05T19:47:28.932Z,63.33
2022-09-05T19:47:39.306Z,63.57
2022-09-05T19:47:41.867Z,64.35
2022-09-05T19:49:04.698Z,64.95
2022-09-05T19:51:33.416Z,64.48
2022-09-05T19:54:04.374Z,64.40
2022-09-05T19:56:35.853Z,64.57
2022-09-05T19:59:16.550Z,64.83
2022-09-05T20:01:46.376Z,65.55
2022-09-05T20:04:18.656Z,65.27
2022-09-05T20:06:47.177Z,65.69
2022-09-05T20:09:18.060Z,66.10
2022-09-05T20:11:50.742Z,66.17
2022-09-05T20:14:21.291Z,66.89
2022-09-05T20:16:50.767Z,66.50
2022-09-05T20:19:31.141Z,66.86
2022-09-05T20:22:12.793Z,67.19
2022-09-05T20:24:53.553Z,67.30
2022-09-05T20:27:27.381Z,67.84
2022-09-05T20:29:58.576Z,68.00
2022-09-05T20:32:39.622Z,68.07
2022-09-05T20:41:30.585Z,68.19
2022-09-05T20:43:17.264Z,68.88
2022-09-05T20:43:22.630Z,68.44
2022-09-05T20:44:00.054Z,68.89
2022-09-05T20:54:05.337Z,68.67
2022-09-05T20:54:14.765Z,69.65
2022-09-05T20:54:16.030Z,69.38
2022-09-05T20:55:38.672Z,69.45
2022-09-05T20:58:12.888Z,70.11
2022-09-05T21:01:15.400Z,70.26
2022-09-05T21:03:37.888Z,70.23
2022-09-05T21:06:22.036Z,70.65
2022-09-05T21:08:51.091Z,71.01
2022-09-05T21:11:29.406Z,71.13
2022-09-05T21:14:02.446Z,71.39
2022-09-05T21:16:32.962Z,71.20
2022-09-05T21:19:00.962Z,71.40
2022-09-05T21:21:30.695Z,71.29
2022-09-05T21:24:18.065Z,71.56
2022-09-05T21:26:48.536Z,71.57
2022-09-05T21:29:26.070Z,71.94
2022-09-05T21:32:02.351Z,71.82
2022-09-05T21:34:38.404Z,72.57
2022-09-05T21:37:14.966Z,72.61
2022-09-05T21:40:00.445Z,72.18
2022-09-05T21:45:50.549Z,72.68
2022-09-05T21:47:47.161Z,72.54
2022-09-05T21:48:10.567Z,72.80
2022-09-05T21:50:41.025Z,73.07
2022-09-05T21:55:56.130Z,73.38
2022-09-05T21:59:19.875Z,73.49
2022-09-05T21:59:27.556Z,73.23
2022-09-05T22:01:58.670Z,73.29
2022-09-05T22:04:27.322Z,72.41
2022-09-05T22:06:58.256Z,73.16
2022-09-05T22:09:26.168Z,73.14
2022-09-05T22:11:54.200Z,73.04
2022-09-05T22:14:24.182Z,73.11
2022-09-05T22:16:55.832Z,72.92
2022-09-05T22:19:37.165Z,72.94
2022-09-05T22:22:16.255Z,73.38
2022-09-05T22:24:49.779Z,73.62
2022-09-05T22:27:20.138Z,73.89
2022-09-05T22:29:50.514Z,73.94
2022-09-05T22:32:33.873Z,73.89
2022-09-05T22:35:27.810Z,74.35
2022-09-05T22:38:00.556Z,74.44
2022-09-05T22:40:30.418Z,74.40
2022-09-05T22:42:59.013Z,74.77
2022-09-05T22:45:27.702Z,74.62
2022-09-05T22:47:56.000Z,74.90
2022-09-05T22:50:26.514Z,74.93
2022-09-05T22:52:54.433Z,75.11
2022-09-05T22:55:22.369Z,75.31
2022-09-05T22:57:50.258Z,74.93
2022-09-05T23:00:18.394Z,75.09
2022-09-05T23:02:51.662Z,75.46
2022-09-05T23:05:20.557Z,75.11
2022-09-05T23:07:49.827Z,75.05
2022-09-05T23:10:17.916Z,75.10
2022-09-05T23:12:46.102Z,75.34
2022-09-05T23:15:14.276Z,75.20
2022-09-05T23:17:42.323Z,75.11
2022-09-05T23:20:11.524Z,75.54
2022-09-05T23:22:40.037Z,75.64
2022-09-05T23:25:10.667Z,75.79
2022-09-05T23:27:39.562Z,75.38
2022-09-05T23:30:09.581Z,76.15
2022-09-05T23:32:37.807Z,75.97
2022-09-05T23:35:06.578Z,76.06
2022-09-05T23:37:34.692Z,75.97
2022-09-05T23:40:03.042Z,75.82
2022-09-05T23:42:32.524Z,75.90
2022-09-05T23:45:00.664Z,75.92
2022-09-05T23:47:29.733Z,75.97
2022-09-05T23:49:58.055Z,76.07
2022-09-05T23:52:26.159Z,75.92
2022-09-05T23:54:54.281Z,76.46
2022-09-05T23:57:23.688Z,76.08
2022-09-05T23:59:53.151Z,76.37
